sensor_id;sensor_type;location;lat;lon;timestamp;P1;durP1;ratioP1;P2;durP2;ratioP2
62338;SDS011;48368;53.406;6.214;2022-07-19T00:00:26;17.17;;;11.02;;
62338;SDS011;48368;53.406;6.214;2022-07-19T00:02:52;15.43;;;10.63;;
62338;SDS011;48368;53.406;6.214;2022-07-19T00:05:18;19.45;;;10.75;;
62338;SDS011;48368;53.406;6.214;2022-07-19T00:07:44;16.48;;;10.45;;
62338;SDS011;48368;53.406;6.214;2022-07-19T00:10:11;17.75;;;11.23;;
62338;SDS011;48368;53.406;6.214;2022-07-19T00:12:39;18.83;;;12.23;;
62338;SDS011;48368;53.406;6.214;2022-07-19T00:15:05;17.98;;;11.75;;
62338;SDS011;48368;53.406;6.214;2022-07-19T00:17:33;18.00;;;11.85;;
62338;SDS011;48368;53.406;6.214;2022-07-19T00:20:00;16.08;;;11.52;;
62338;SDS011;48368;53.406;6.214;2022-07-19T00:22:25;17.75;;;11.18;;
62338;SDS011;48368;53.406;6.214;2022-07-19T00:24:51;19.10;;;12.05;;
62338;SDS011;48368;53.406;6.214;2022-07-19T00:27:17;17.83;;;12.93;;
62338;SDS011;48368;53.406;6.214;2022-07-19T00:29:42;18.30;;;12.00;;
62338;SDS011;48368;53.406;6.214;2022-07-19T00:32:08;19.40;;;11.88;;
62338;SDS011;48368;53.406;6.214;2022-07-19T00:34:34;24.95;;;13.80;;
62338;SDS011;48368;53.406;6.214;2022-07-19T00:36:59;18.35;;;12.18;;
62338;SDS011;48368;53.406;6.214;2022-07-19T00:39:25;18.70;;;12.18;;
62338;SDS011;48368;53.406;6.214;2022-07-19T00:41:51;20.27;;;12.13;;
62338;SDS011;48368;53.406;6.214;2022-07-19T00:44:17;16.65;;;11.95;;
62338;SDS011;48368;53.406;6.214;2022-07-19T00:46:46;17.98;;;12.02;;
62338;SDS011;48368;53.406;6.214;2022-07-19T00:49:12;17.85;;;11.93;;
62338;SDS011;48368;53.406;6.214;2022-07-19T00:51:38;19.02;;;12.15;;
62338;SDS011;48368;53.406;6.214;2022-07-19T00:54:08;17.77;;;12.30;;
62338;SDS011;48368;53.406;6.214;2022-07-19T00:56:36;23.13;;;12.85;;
62338;SDS011;48368;53.406;6.214;2022-07-19T00:59:03;19.50;;;12.15;;
62338;SDS011;48368;53.406;6.214;2022-07-19T01:01:30;21.42;;;12.52;;
62338;SDS011;48368;53.406;6.214;2022-07-19T01:03:57;18.77;;;12.27;;
62338;SDS011;48368;53.406;6.214;2022-07-19T01:06:23;18.35;;;11.82;;
62338;SDS011;48368;53.406;6.214;2022-07-19T01:08:49;18.23;;;13.57;;
62338;SDS011;48368;53.406;6.214;2022-07-19T01:11:15;20.58;;;13.93;;
62338;SDS011;48368;53.406;6.214;2022-07-19T01:13:40;19.02;;;13.27;;
62338;SDS011;48368;53.406;6.214;2022-07-19T01:16:06;27.05;;;13.98;;
62338;SDS011;48368;53.406;6.214;2022-07-19T01:18:32;20.40;;;12.98;;
62338;SDS011;48368;53.406;6.214;2022-07-19T01:20:57;22.38;;;12.45;;
62338;SDS011;48368;53.406;6.214;2022-07-19T01:23:24;24.73;;;13.32;;
62338;SDS011;48368;53.406;6.214;2022-07-19T01:25:49;21.17;;;12.77;;
62338;SDS011;48368;53.406;6.214;2022-07-19T01:28:15;20.45;;;11.80;;
62338;SDS011;48368;53.406;6.214;2022-07-19T01:30:41;19.75;;;12.13;;
62338;SDS011;48368;53.406;6.214;2022-07-19T01:33:07;19.00;;;11.65;;
62338;SDS011;48368;53.406;6.214;2022-07-19T01:35:32;19.75;;;12.00;;
62338;SDS011;48368;53.406;6.214;2022-07-19T01:37:58;20.27;;;12.02;;
62338;SDS011;48368;53.406;6.214;2022-07-19T01:40:24;17.75;;;12.32;;
62338;SDS011;48368;53.406;6.214;2022-07-19T01:42:50;24.20;;;14.57;;
62338;SDS011;48368;53.406;6.214;2022-07-19T01:45:17;19.60;;;12.95;;
62338;SDS011;48368;53.406;6.214;2022-07-19T01:47:43;23.20;;;12.68;;
62338;SDS011;48368;53.406;6.214;2022-07-19T01:50:10;21.58;;;12.23;;
62338;SDS011;48368;53.406;6.214;2022-07-19T01:52:37;21.67;;;12.90;;
62338;SDS011;48368;53.406;6.214;2022-07-19T01:55:03;18.90;;;12.63;;
62338;SDS011;48368;53.406;6.214;2022-07-19T01:57:29;18.90;;;11.70;;
62338;SDS011;48368;53.406;6.214;2022-07-19T01:59:55;17.65;;;12.02;;
62338;SDS011;48368;53.406;6.214;2022-07-19T02:02:21;18.85;;;12.23;;
62338;SDS011;48368;53.406;6.214;2022-07-19T02:04:47;16.40;;;11.32;;
62338;SDS011;48368;53.406;6.214;2022-07-19T02:07:13;18.83;;;11.38;;
62338;SDS011;48368;53.406;6.214;2022-07-19T02:09:38;19.13;;;11.98;;
62338;SDS011;48368;53.406;6.214;2022-07-19T02:12:04;20.27;;;12.30;;
62338;SDS011;48368;53.406;6.214;2022-07-19T02:14:30;18.75;;;11.77;;
62338;SDS011;48368;53.406;6.214;2022-07-19T02:16:56;18.65;;;11.05;;
62338;SDS011;48368;53.406;6.214;2022-07-19T02:19:21;19.38;;;12.30;;
62338;SDS011;48368;53.406;6.214;2022-07-19T02:21:47;19.75;;;12.38;;
62338;SDS011;48368;53.406;6.214;2022-07-19T02:24:13;20.50;;;11.88;;
62338;SDS011;48368;53.406;6.214;2022-07-19T02:26:39;19.95;;;12.30;;
62338;SDS011;48368;53.406;6.214;2022-07-19T02:29:05;21.50;;;11.55;;
62338;SDS011;48368;53.406;6.214;2022-07-19T02:31:31;16.67;;;10.77;;
62338;SDS011;48368;53.406;6.214;2022-07-19T02:33:57;19.33;;;11.13;;
62338;SDS011;48368;53.406;6.214;2022-07-19T02:36:22;21.15;;;11.20;;
62338;SDS011;48368;53.406;6.214;2022-07-19T02:38:48;16.50;;;10.82;;
62338;SDS011;48368;53.406;6.214;2022-07-19T02:41:14;18.67;;;12.20;;
62338;SDS011;48368;53.406;6.214;2022-07-19T02:43:40;21.15;;;11.27;;
62338;SDS011;48368;53.406;6.214;2022-07-19T02:46:05;18.83;;;11.23;;
62338;SDS011;48368;53.406;6.214;2022-07-19T02:48:31;17.88;;;11.68;;
62338;SDS011;48368;53.406;6.214;2022-07-19T02:50:57;18.65;;;10.90;;
62338;SDS011;48368;53.406;6.214;2022-07-19T02:53:23;19.35;;;12.18;;
62338;SDS011;48368;53.406;6.214;2022-07-19T02:55:48;18.77;;;11.95;;
62338;SDS011;48368;53.406;6.214;2022-07-19T02:58:14;17.23;;;11.60;;
62338;SDS011;48368;53.406;6.214;2022-07-19T03:00:40;21.02;;;12.68;;
62338;SDS011;48368;53.406;6.214;2022-07-19T03:03:06;19.08;;;11.77;;
62338;SDS011;48368;53.406;6.214;2022-07-19T03:05:50;18.25;;;11.73;;
62338;SDS011;48368;53.406;6.214;2022-07-19T03:08:16;19.85;;;11.88;;
62338;SDS011;48368;53.406;6.214;2022-07-19T03:10:42;20.63;;;11.30;;
62338;SDS011;48368;53.406;6.214;2022-07-19T03:13:08;24.23;;;11.90;;
62338;SDS011;48368;53.406;6.214;2022-07-19T03:15:34;19.73;;;12.07;;
62338;SDS011;48368;53.406;6.214;2022-07-19T03:18:00;22.83;;;12.75;;
62338;SDS011;48368;53.406;6.214;2022-07-19T03:20:26;21.20;;;11.43;;
62338;SDS011;48368;53.406;6.214;2022-07-19T03:22:52;19.27;;;11.82;;
62338;SDS011;48368;53.406;6.214;2022-07-19T03:25:17;18.50;;;11.00;;
62338;SDS011;48368;53.406;6.214;2022-07-19T03:27:43;21.35;;;11.48;;
62338;SDS011;48368;53.406;6.214;2022-07-19T03:30:09;18.83;;;10.65;;
62338;SDS011;48368;53.406;6.214;2022-07-19T03:32:34;19.02;;;10.73;;
62338;SDS011;48368;53.406;6.214;2022-07-19T03:35:00;18.58;;;11.07;;
62338;SDS011;48368;53.406;6.214;2022-07-19T03:37:26;16.95;;;10.73;;
62338;SDS011;48368;53.406;6.214;2022-07-19T03:39:52;17.05;;;10.73;;
62338;SDS011;48368;53.406;6.214;2022-07-19T03:42:17;20.42;;;10.13;;
62338;SDS011;48368;53.406;6.214;2022-07-19T03:44:43;16.73;;;10.45;;
62338;SDS011;48368;53.406;6.214;2022-07-19T03:47:08;16.13;;;10.65;;
62338;SDS011;48368;53.406;6.214;2022-07-19T03:49:34;16.50;;;10.70;;
62338;SDS011;48368;53.406;6.214;2022-07-19T03:52:00;20.30;;;10.93;;
62338;SDS011;48368;53.406;6.214;2022-07-19T03:54:25;19.38;;;10.82;;
62338;SDS011;48368;53.406;6.214;2022-07-19T03:56:51;19.25;;;10.90;;
62338;SDS011;48368;53.406;6.214;2022-07-19T03:59:16;16.30;;;9.95;;
62338;SDS011;48368;53.406;6.214;2022-07-19T04:01:42;19.15;;;11.07;;
62338;SDS011;48368;53.406;6.214;2022-07-19T04:04:08;17.13;;;11.18;;
62338;SDS011;48368;53.406;6.214;2022-07-19T04:06:33;19.13;;;11.10;;
62338;SDS011;48368;53.406;6.214;2022-07-19T04:08:59;21.85;;;11.10;;
62338;SDS011;48368;53.406;6.214;2022-07-19T04:11:25;19.00;;;11.45;;
62338;SDS011;48368;53.406;6.214;2022-07-19T04:13:50;18.10;;;11.48;;
62338;SDS011;48368;53.406;6.214;2022-07-19T04:16:16;20.40;;;12.65;;
62338;SDS011;48368;53.406;6.214;2022-07-19T04:18:42;21.67;;;11.75;;
62338;SDS011;48368;53.406;6.214;2022-07-19T04:21:07;18.02;;;11.88;;
62338;SDS011;48368;53.406;6.214;2022-07-19T04:23:33;18.50;;;11.88;;
62338;SDS011;48368;53.406;6.214;2022-07-19T04:25:59;17.60;;;11.43;;
62338;SDS011;48368;53.406;6.214;2022-07-19T04:28:25;19.02;;;11.43;;
62338;SDS011;48368;53.406;6.214;2022-07-19T04:30:51;17.92;;;10.85;;
62338;SDS011;48368;53.406;6.214;2022-07-19T04:33:17;18.77;;;10.93;;
62338;SDS011;48368;53.406;6.214;2022-07-19T04:35:43;19.75;;;11.07;;
62338;SDS011;48368;53.406;6.214;2022-07-19T04:38:09;19.88;;;11.23;;
62338;SDS011;48368;53.406;6.214;2022-07-19T04:40:35;19.58;;;11.48;;
62338;SDS011;48368;53.406;6.214;2022-07-19T04:43:01;22.65;;;10.85;;
62338;SDS011;48368;53.406;6.214;2022-07-19T04:45:27;19.60;;;11.70;;
62338;SDS011;48368;53.406;6.214;2022-07-19T04:47:53;18.55;;;10.70;;
62338;SDS011;48368;53.406;6.214;2022-07-19T04:50:18;21.90;;;12.43;;
62338;SDS011;48368;53.406;6.214;2022-07-19T04:52:44;17.45;;;11.98;;
62338;SDS011;48368;53.406;6.214;2022-07-19T04:55:10;20.10;;;10.75;;
62338;SDS011;48368;53.406;6.214;2022-07-19T04:57:36;20.00;;;11.52;;
62338;SDS011;48368;53.406;6.214;2022-07-19T05:00:03;18.48;;;11.77;;
62338;SDS011;48368;53.406;6.214;2022-07-19T05:02:30;20.27;;;11.88;;
62338;SDS011;48368;53.406;6.214;2022-07-19T05:04:56;18.67;;;11.55;;
62338;SDS011;48368;53.406;6.214;2022-07-19T05:07:21;19.65;;;11.52;;
62338;SDS011;48368;53.406;6.214;2022-07-19T05:09:47;19.08;;;11.10;;
62338;SDS011;48368;53.406;6.214;2022-07-19T05:12:12;18.40;;;11.35;;
62338;SDS011;48368;53.406;6.214;2022-07-19T05:14:38;18.83;;;11.27;;
62338;SDS011;48368;53.406;6.214;2022-07-19T05:17:04;19.13;;;11.38;;
62338;SDS011;48368;53.406;6.214;2022-07-19T05:19:29;21.17;;;10.90;;
62338;SDS011;48368;53.406;6.214;2022-07-19T05:21:55;19.80;;;12.00;;
62338;SDS011;48368;53.406;6.214;2022-07-19T05:24:21;19.13;;;12.18;;
62338;SDS011;48368;53.406;6.214;2022-07-19T05:26:46;19.35;;;11.30;;
62338;SDS011;48368;53.406;6.214;2022-07-19T05:29:12;33.78;;;13.70;;
62338;SDS011;48368;53.406;6.214;2022-07-19T05:31:38;22.20;;;10.20;;
62338;SDS011;48368;53.406;6.214;2022-07-19T05:34:04;20.27;;;10.35;;
62338;SDS011;48368;53.406;6.214;2022-07-19T05:36:29;23.15;;;11.80;;
62338;SDS011;48368;53.406;6.214;2022-07-19T05:38:55;18.58;;;10.90;;
62338;SDS011;48368;53.406;6.214;2022-07-19T05:41:21;17.02;;;10.65;;
62338;SDS011;48368;53.406;6.214;2022-07-19T05:43:47;19.08;;;10.68;;
62338;SDS011;48368;53.406;6.214;2022-07-19T05:46:14;21.15;;;10.52;;
62338;SDS011;48368;53.406;6.214;2022-07-19T05:48:40;18.63;;;11.35;;
62338;SDS011;48368;53.406;6.214;2022-07-19T05:51:06;16.17;;;9.95;;
62338;SDS011;48368;53.406;6.214;2022-07-19T05:53:32;18.27;;;11.02;;
62338;SDS011;48368;53.406;6.214;2022-07-19T05:55:59;18.67;;;10.40;;
62338;SDS011;48368;53.406;6.214;2022-07-19T05:58:25;13.50;;;9.15;;
62338;SDS011;48368;53.406;6.214;2022-07-19T06:00:50;15.57;;;9.18;;
62338;SDS011;48368;53.406;6.214;2022-07-19T06:03:34;18.60;;;9.05;;
62338;SDS011;48368;53.406;6.214;2022-07-19T06:06:00;19.80;;;10.45;;
62338;SDS011;48368;53.406;6.214;2022-07-19T06:08:26;15.07;;;9.30;;
62338;SDS011;48368;53.406;6.214;2022-07-19T06:10:52;14.55;;;8.85;;
62338;SDS011;48368;53.406;6.214;2022-07-19T06:13:18;18.33;;;9.10;;
62338;SDS011;48368;53.406;6.214;2022-07-19T06:15:43;17.23;;;9.50;;
62338;SDS011;48368;53.406;6.214;2022-07-19T06:18:09;23.30;;;9.43;;
62338;SDS011;48368;53.406;6.214;2022-07-19T06:20:35;19.90;;;9.52;;
62338;SDS011;48368;53.406;6.214;2022-07-19T06:23:01;15.73;;;9.52;;
62338;SDS011;48368;53.406;6.214;2022-07-19T06:25:26;13.43;;;8.65;;
62338;SDS011;48368;53.406;6.214;2022-07-19T06:27:52;15.35;;;9.00;;
62338;SDS011;48368;53.406;6.214;2022-07-19T06:30:18;14.95;;;7.95;;
62338;SDS011;48368;53.406;6.214;2022-07-19T06:32:43;17.30;;;8.93;;
62338;SDS011;48368;53.406;6.214;2022-07-19T06:35:09;16.02;;;8.65;;
62338;SDS011;48368;53.406;6.214;2022-07-19T06:37:34;19.45;;;10.55;;
62338;SDS011;48368;53.406;6.214;2022-07-19T06:40:00;16.83;;;7.93;;
62338;SDS011;48368;53.406;6.214;2022-07-19T06:42:26;15.00;;;8.57;;
62338;SDS011;48368;53.406;6.214;2022-07-19T06:44:51;12.10;;;8.13;;
62338;SDS011;48368;53.406;6.214;2022-07-19T06:47:17;13.85;;;8.38;;
62338;SDS011;48368;53.406;6.214;2022-07-19T06:49:43;14.65;;;8.40;;
62338;SDS011;48368;53.406;6.214;2022-07-19T06:52:08;18.85;;;8.43;;
62338;SDS011;48368;53.406;6.214;2022-07-19T06:54:34;15.02;;;9.15;;
62338;SDS011;48368;53.406;6.214;2022-07-19T06:57:01;14.90;;;9.15;;
62338;SDS011;48368;53.406;6.214;2022-07-19T06:59:27;17.90;;;8.40;;
62338;SDS011;48368;53.406;6.214;2022-07-19T07:01:52;13.32;;;8.55;;
62338;SDS011;48368;53.406;6.214;2022-07-19T07:04:18;19.73;;;8.98;;
62338;SDS011;48368;53.406;6.214;2022-07-19T07:06:44;15.77;;;8.43;;
62338;SDS011;48368;53.406;6.214;2022-07-19T07:09:10;15.13;;;8.30;;
62338;SDS011;48368;53.406;6.214;2022-07-19T07:11:35;14.68;;;7.72;;
62338;SDS011;48368;53.406;6.214;2022-07-19T07:14:01;14.25;;;7.75;;
62338;SDS011;48368;53.406;6.214;2022-07-19T07:16:27;14.27;;;7.93;;
62338;SDS011;48368;53.406;6.214;2022-07-19T07:18:52;14.85;;;7.88;;
62338;SDS011;48368;53.406;6.214;2022-07-19T07:21:18;14.75;;;8.18;;
62338;SDS011;48368;53.406;6.214;2022-07-19T07:23:44;13.55;;;7.47;;
62338;SDS011;48368;53.406;6.214;2022-07-19T07:26:09;13.02;;;7.82;;
62338;SDS011;48368;53.406;6.214;2022-07-19T07:28:36;16.30;;;7.57;;
62338;SDS011;48368;53.406;6.214;2022-07-19T07:31:02;13.48;;;6.80;;
62338;SDS011;48368;53.406;6.214;2022-07-19T07:33:27;11.93;;;6.70;;
62338;SDS011;48368;53.406;6.214;2022-07-19T07:35:53;11.20;;;6.95;;
62338;SDS011;48368;53.406;6.214;2022-07-19T07:38:19;11.52;;;6.50;;
62338;SDS011;48368;53.406;6.214;2022-07-19T07:40:44;13.65;;;7.32;;
62338;SDS011;48368;53.406;6.214;2022-07-19T07:43:11;12.70;;;7.40;;
62338;SDS011;48368;53.406;6.214;2022-07-19T07:45:37;10.95;;;7.13;;
62338;SDS011;48368;53.406;6.214;2022-07-19T07:48:02;12.65;;;6.70;;
62338;SDS011;48368;53.406;6.214;2022-07-19T07:50:28;11.35;;;6.50;;
62338;SDS011;48368;53.406;6.214;2022-07-19T07:52:54;11.20;;;6.60;;
62338;SDS011;48368;53.406;6.214;2022-07-19T07:55:19;11.02;;;6.30;;
62338;SDS011;48368;53.406;6.214;2022-07-19T07:57:45;10.15;;;6.25;;
62338;SDS011;48368;53.406;6.214;2022-07-19T08:00:11;11.05;;;6.35;;
62338;SDS011;48368;53.406;6.214;2022-07-19T08:02:42;11.10;;;6.45;;
62338;SDS011;48368;53.406;6.214;2022-07-19T08:05:09;10.75;;;7.07;;
62338;SDS011;48368;53.406;6.214;2022-07-19T08:07:35;11.73;;;6.43;;
62338;SDS011;48368;53.406;6.214;2022-07-19T08:10:05;12.70;;;6.25;;
62338;SDS011;48368;53.406;6.214;2022-07-19T08:12:32;11.82;;;6.43;;
62338;SDS011;48368;53.406;6.214;2022-07-19T08:14:58;12.07;;;6.22;;
62338;SDS011;48368;53.406;6.214;2022-07-19T08:17:24;10.70;;;6.43;;
62338;SDS011;48368;53.406;6.214;2022-07-19T08:19:49;10.18;;;6.32;;
62338;SDS011;48368;53.406;6.214;2022-07-19T08:22:15;9.88;;;6.63;;
62338;SDS011;48368;53.406;6.214;2022-07-19T08:24:42;9.32;;;5.88;;
62338;SDS011;48368;53.406;6.214;2022-07-19T08:27:08;14.20;;;6.70;;
62338;SDS011;48368;53.406;6.214;2022-07-19T08:29:33;13.15;;;6.05;;
62338;SDS011;48368;53.406;6.214;2022-07-19T08:31:59;11.77;;;6.10;;
62338;SDS011;48368;53.406;6.214;2022-07-19T08:34:25;15.25;;;6.28;;
62338;SDS011;48368;53.406;6.214;2022-07-19T08:36:50;9.07;;;6.20;;
62338;SDS011;48368;53.406;6.214;2022-07-19T08:39:16;10.15;;;5.95;;
62338;SDS011;48368;53.406;6.214;2022-07-19T08:41:45;9.60;;;5.55;;
62338;SDS011;48368;53.406;6.214;2022-07-19T08:44:12;13.18;;;6.10;;
62338;SDS011;48368;53.406;6.214;2022-07-19T08:46:41;9.15;;;6.00;;
62338;SDS011;48368;53.406;6.214;2022-07-19T08:49:07;10.85;;;5.20;;
62338;SDS011;48368;53.406;6.214;2022-07-19T08:51:34;10.35;;;5.88;;
62338;SDS011;48368;53.406;6.214;2022-07-19T08:54:00;9.80;;;5.75;;
62338;SDS011;48368;53.406;6.214;2022-07-19T08:56:26;11.30;;;6.00;;
62338;SDS011;48368;53.406;6.214;2022-07-19T08:59:10;8.90;;;6.13;;
62338;SDS011;48368;53.406;6.214;2022-07-19T09:01:36;10.95;;;5.95;;
62338;SDS011;48368;53.406;6.214;2022-07-19T09:06:39;9.45;;;5.35;;
62338;SDS011;48368;53.406;6.214;2022-07-19T09:09:10;16.35;;;5.90;;
62338;SDS011;48368;53.406;6.214;2022-07-19T09:11:38;15.82;;;5.15;;
62338;SDS011;48368;53.406;6.214;2022-07-19T09:14:13;8.35;;;5.28;;
62338;SDS011;48368;53.406;6.214;2022-07-19T09:19:19;14.05;;;5.72;;
62338;SDS011;48368;53.406;6.214;2022-07-19T09:21:53;12.95;;;5.28;;
62338;SDS011;48368;53.406;6.214;2022-07-19T09:24:40;10.00;;;4.97;;
62338;SDS011;48368;53.406;6.214;2022-07-19T09:27:16;10.15;;;5.13;;
62338;SDS011;48368;53.406;6.214;2022-07-19T09:29:54;7.40;;;4.80;;
62338;SDS011;48368;53.406;6.214;2022-07-19T09:32:22;10.20;;;4.85;;
62338;SDS011;48368;53.406;6.214;2022-07-19T09:34:50;9.00;;;4.68;;
62338;SDS011;48368;53.406;6.214;2022-07-19T09:37:24;11.60;;;5.03;;
62338;SDS011;48368;53.406;6.214;2022-07-19T09:39:53;11.30;;;5.05;;
62338;SDS011;48368;53.406;6.214;2022-07-19T09:42:21;9.55;;;4.78;;
62338;SDS011;48368;53.406;6.214;2022-07-19T09:44:58;7.65;;;4.78;;
62338;SDS011;48368;53.406;6.214;2022-07-19T09:47:31;11.77;;;4.65;;
62338;SDS011;48368;53.406;6.214;2022-07-19T09:49:58;8.68;;;4.30;;
62338;SDS011;48368;53.406;6.214;2022-07-19T09:52:24;8.05;;;4.20;;
62338;SDS011;48368;53.406;6.214;2022-07-19T09:54:51;6.15;;;3.88;;
62338;SDS011;48368;53.406;6.214;2022-07-19T09:57:20;7.57;;;3.97;;
62338;SDS011;48368;53.406;6.214;2022-07-19T09:59:50;8.10;;;4.18;;
62338;SDS011;48368;53.406;6.214;2022-07-19T10:02:21;7.00;;;4.53;;
62338;SDS011;48368;53.406;6.214;2022-07-19T10:04:48;11.00;;;4.43;;
62338;SDS011;48368;53.406;6.214;2022-07-19T10:07:18;8.65;;;3.83;;
62338;SDS011;48368;53.406;6.214;2022-07-19T10:09:44;13.23;;;4.05;;
62338;SDS011;48368;53.406;6.214;2022-07-19T10:12:11;12.18;;;4.30;;
62338;SDS011;48368;53.406;6.214;2022-07-19T10:14:37;9.43;;;4.00;;
62338;SDS011;48368;53.406;6.214;2022-07-19T10:20:02;7.55;;;3.90;;
62338;SDS011;48368;53.406;6.214;2022-07-19T10:22:30;10.02;;;4.18;;
62338;SDS011;48368;53.406;6.214;2022-07-19T10:24:57;5.47;;;3.47;;
62338;SDS011;48368;53.406;6.214;2022-07-19T10:29:50;5.80;;;3.42;;
62338;SDS011;48368;53.406;6.214;2022-07-19T10:32:17;6.10;;;3.30;;
62338;SDS011;48368;53.406;6.214;2022-07-19T10:34:43;9.77;;;3.92;;
62338;SDS011;48368;53.406;6.214;2022-07-19T10:37:13;5.85;;;3.22;;
62338;SDS011;48368;53.406;6.214;2022-07-19T10:39:39;6.57;;;3.47;;
62338;SDS011;48368;53.406;6.214;2022-07-19T10:50:09;8.82;;;3.80;;
62338;SDS011;48368;53.406;6.214;2022-07-19T10:52:37;6.97;;;3.17;;
62338;SDS011;48368;53.406;6.214;2022-07-19T10:57:51;8.52;;;3.08;;
62338;SDS011;48368;53.406;6.214;2022-07-19T11:05:49;9.30;;;3.40;;
62338;SDS011;48368;53.406;6.214;2022-07-19T11:11:02;5.93;;;2.85;;
62338;SDS011;48368;53.406;6.214;2022-07-19T11:13:32;8.60;;;2.95;;
62338;SDS011;48368;53.406;6.214;2022-07-19T11:15:59;6.93;;;2.70;;
62338;SDS011;48368;53.406;6.214;2022-07-19T11:18:27;6.00;;;3.03;;
62338;SDS011;48368;53.406;6.214;2022-07-19T11:20:56;6.93;;;2.85;;
62338;SDS011;48368;53.406;6.214;2022-07-19T11:23:23;6.43;;;3.00;;
62338;SDS011;48368;53.406;6.214;2022-07-19T11:25:52;4.57;;;2.58;;
62338;SDS011;48368;53.406;6.214;2022-07-19T11:28:36;5.55;;;2.83;;
62338;SDS011;48368;53.406;6.214;2022-07-19T11:31:14;5.78;;;2.92;;
62338;SDS011;48368;53.406;6.214;2022-07-19T11:33:40;7.40;;;2.72;;
62338;SDS011;48368;53.406;6.214;2022-07-19T11:36:07;5.07;;;2.65;;
62338;SDS011;48368;53.406;6.214;2022-07-19T11:38:34;4.10;;;2.42;;
62338;SDS011;48368;53.406;6.214;2022-07-19T11:41:00;6.53;;;2.78;;
62338;SDS011;48368;53.406;6.214;2022-07-19T11:43:26;7.32;;;2.65;;
62338;SDS011;48368;53.406;6.214;2022-07-19T11:45:51;5.22;;;2.60;;
62338;SDS011;48368;53.406;6.214;2022-07-19T11:48:24;4.38;;;2.20;;
62338;SDS011;48368;53.406;6.214;2022-07-19T11:51:04;4.68;;;2.40;;
62338;SDS011;48368;53.406;6.214;2022-07-19T11:53:36;4.90;;;2.80;;
62338;SDS011;48368;53.406;6.214;2022-07-19T11:56:04;5.28;;;2.53;;
62338;SDS011;48368;53.406;6.214;2022-07-19T11:58:41;6.95;;;2.50;;
62338;SDS011;48368;53.406;6.214;2022-07-19T12:01:08;3.70;;;2.10;;
62338;SDS011;48368;53.406;6.214;2022-07-19T12:03:33;7.43;;;2.50;;
62338;SDS011;48368;53.406;6.214;2022-07-19T12:06:06;8.60;;;2.95;;
62338;SDS011;48368;53.406;6.214;2022-07-19T12:08:37;5.97;;;2.67;;
62338;SDS011;48368;53.406;6.214;2022-07-19T12:11:19;7.22;;;2.95;;
62338;SDS011;48368;53.406;6.214;2022-07-19T12:13:50;3.78;;;2.20;;
62338;SDS011;48368;53.406;6.214;2022-07-19T12:16:17;7.03;;;2.50;;
62338;SDS011;48368;53.406;6.214;2022-07-19T12:18:46;4.35;;;2.63;;
62338;SDS011;48368;53.406;6.214;2022-07-19T12:21:21;6.15;;;2.65;;
62338;SDS011;48368;53.406;6.214;2022-07-19T12:26:53;5.82;;;2.33;;
62338;SDS011;48368;53.406;6.214;2022-07-19T12:29:27;6.38;;;2.30;;
62338;SDS011;48368;53.406;6.214;2022-07-19T12:31:58;4.18;;;2.70;;
62338;SDS011;48368;53.406;6.214;2022-07-19T12:34:25;8.65;;;2.42;;
62338;SDS011;48368;53.406;6.214;2022-07-19T12:36:52;5.22;;;2.08;;
62338;SDS011;48368;53.406;6.214;2022-07-19T12:39:25;5.72;;;2.35;;
62338;SDS011;48368;53.406;6.214;2022-07-19T12:44:23;2.83;;;1.98;;
62338;SDS011;48368;53.406;6.214;2022-07-19T12:46:49;4.90;;;2.17;;
62338;SDS011;48368;53.406;6.214;2022-07-19T12:49:14;6.15;;;2.13;;
62338;SDS011;48368;53.406;6.214;2022-07-19T12:51:40;3.35;;;2.10;;
62338;SDS011;48368;53.406;6.214;2022-07-19T12:54:11;5.20;;;1.95;;
62338;SDS011;48368;53.406;6.214;2022-07-19T12:56:38;6.88;;;2.25;;
62338;SDS011;48368;53.406;6.214;2022-07-19T12:59:04;4.10;;;2.15;;
62338;SDS011;48368;53.406;6.214;2022-07-19T13:01:49;4.35;;;1.98;;
62338;SDS011;48368;53.406;6.214;2022-07-19T13:04:15;5.65;;;1.80;;
62338;SDS011;48368;53.406;6.214;2022-07-19T13:06:41;6.30;;;1.88;;
62338;SDS011;48368;53.406;6.214;2022-07-19T13:09:07;4.95;;;2.05;;
62338;SDS011;48368;53.406;6.214;2022-07-19T13:11:34;3.30;;;1.80;;
62338;SDS011;48368;53.406;6.214;2022-07-19T13:14:00;4.70;;;1.85;;
62338;SDS011;48368;53.406;6.214;2022-07-19T13:16:26;3.45;;;1.73;;
62338;SDS011;48368;53.406;6.214;2022-07-19T13:18:51;4.25;;;1.70;;
62338;SDS011;48368;53.406;6.214;2022-07-19T13:21:18;7.20;;;2.00;;
62338;SDS011;48368;53.406;6.214;2022-07-19T13:23:44;4.53;;;1.90;;
62338;SDS011;48368;53.406;6.214;2022-07-19T13:26:10;5.95;;;1.83;;
62338;SDS011;48368;53.406;6.214;2022-07-19T13:28:36;4.07;;;2.08;;
62338;SDS011;48368;53.406;6.214;2022-07-19T13:31:02;6.82;;;2.17;;
62338;SDS011;48368;53.406;6.214;2022-07-19T13:33:29;7.63;;;2.17;;
62338;SDS011;48368;53.406;6.214;2022-07-19T13:35:54;11.40;;;2.17;;
62338;SDS011;48368;53.406;6.214;2022-07-19T13:38:20;5.25;;;2.40;;
62338;SDS011;48368;53.406;6.214;2022-07-19T13:40:46;6.50;;;2.22;;
62338;SDS011;48368;53.406;6.214;2022-07-19T13:43:11;4.72;;;1.95;;
62338;SDS011;48368;53.406;6.214;2022-07-19T13:45:37;4.40;;;1.80;;
62338;SDS011;48368;53.406;6.214;2022-07-19T13:48:03;4.78;;;1.80;;
62338;SDS011;48368;53.406;6.214;2022-07-19T13:50:29;6.00;;;2.00;;
62338;SDS011;48368;53.406;6.214;2022-07-19T13:52:55;6.45;;;2.53;;
62338;SDS011;48368;53.406;6.214;2022-07-19T13:55:22;4.55;;;2.00;;
62338;SDS011;48368;53.406;6.214;2022-07-19T13:57:48;3.80;;;2.13;;
62338;SDS011;48368;53.406;6.214;2022-07-19T14:00:14;4.80;;;1.90;;
62338;SDS011;48368;53.406;6.214;2022-07-19T14:02:42;5.40;;;1.90;;
62338;SDS011;48368;53.406;6.214;2022-07-19T14:05:08;4.97;;;2.10;;
62338;SDS011;48368;53.406;6.214;2022-07-19T14:07:34;4.82;;;1.90;;
62338;SDS011;48368;53.406;6.214;2022-07-19T14:10:00;4.45;;;2.15;;
62338;SDS011;48368;53.406;6.214;2022-07-19T14:12:26;5.10;;;2.00;;
62338;SDS011;48368;53.406;6.214;2022-07-19T14:14:52;4.50;;;2.10;;
62338;SDS011;48368;53.406;6.214;2022-07-19T14:17:17;8.57;;;2.10;;
62338;SDS011;48368;53.406;6.214;2022-07-19T14:19:43;4.78;;;2.08;;
62338;SDS011;48368;53.406;6.214;2022-07-19T14:22:09;5.60;;;2.22;;
62338;SDS011;48368;53.406;6.214;2022-07-19T14:24:35;6.32;;;2.08;;
62338;SDS011;48368;53.406;6.214;2022-07-19T14:27:00;9.05;;;2.45;;
62338;SDS011;48368;53.406;6.214;2022-07-19T14:29:26;7.13;;;2.30;;
62338;SDS011;48368;53.406;6.214;2022-07-19T14:31:53;7.10;;;2.25;;
62338;SDS011;48368;53.406;6.214;2022-07-19T14:34:19;7.40;;;2.30;;
62338;SDS011;48368;53.406;6.214;2022-07-19T14:36:45;8.90;;;2.63;;
62338;SDS011;48368;53.406;6.214;2022-07-19T14:39:10;9.18;;;2.40;;
62338;SDS011;48368;53.406;6.214;2022-07-19T14:41:36;4.63;;;2.50;;
62338;SDS011;48368;53.406;6.214;2022-07-19T14:44:02;6.05;;;2.55;;
62338;SDS011;48368;53.406;6.214;2022-07-19T14:46:29;5.35;;;2.47;;
62338;SDS011;48368;53.406;6.214;2022-07-19T14:48:54;10.68;;;3.40;;
62338;SDS011;48368;53.406;6.214;2022-07-19T14:51:20;8.52;;;2.55;;
62338;SDS011;48368;53.406;6.214;2022-07-19T14:53:46;5.55;;;2.42;;
62338;SDS011;48368;53.406;6.214;2022-07-19T14:56:11;5.65;;;2.60;;
62338;SDS011;48368;53.406;6.214;2022-07-19T14:58:37;9.90;;;2.90;;
62338;SDS011;48368;53.406;6.214;2022-07-19T15:01:03;5.65;;;2.53;;
62338;SDS011;48368;53.406;6.214;2022-07-19T15:03:32;4.78;;;2.85;;
62338;SDS011;48368;53.406;6.214;2022-07-19T15:05:57;6.43;;;2.67;;